Time;durP1;ratioP1;P1;durP2;ratioP2;P2;SDS_P1;SDS_P2;PMS_P1;PMS_P2;Temp;Humidity;BMP_temperature;BMP_pressure;BME280_temperature;BME280_humidity;BME280_pressure;Samples;Min_cycle;Max_cycle;Signal;HPM_P1;HPM_P2
2023/08/27 06:28:15;;;;;;;;;;;;;;;21.81;66.07;96319.66;4189178;28;10448;-64
2023/08/27 06:30:18;;;;;;;;;;;;;;;22.11;65.07;96323.31;4196672;28;5720;-62
2023/08/27 06:32:20;;;;;;;;;;;;;;;22.35;64.59;96329.63;4189263;28;5716;-62
2023/08/27 06:34:23;;;;;;;;;;;;;;;22.52;63.97;96335.44;4191900;28;5090;-62
2023/08/27 06:36:27;;;;;;;;;;;;;;;22.66;63.72;96327.53;4186810;28;5994;-62
2023/08/27 06:38:30;;;;;;;;;;;;;;;22.80;63.33;96333.88;4189412;28;5731;-62
2023/08/27 06:40:31;;;;;;;;;;;;;;;22.91;62.87;96337.34;4181250;28;5833;-62
2023/08/27 06:42:34;;;;;;;;;;;;;;;23.01;62.58;96341.84;4181283;28;5719;-63
2023/08/27 06:44:39;;;;;;;;;;;;;;;23.09;62.64;96343.91;4185232;28;5808;-62
2023/08/27 06:46:42;;;;;;;;;;;;;;;23.16;62.26;96355.97;4189269;28;7087;-63
2023/08/27 06:48:45;;;;;;;;;;;;;;;23.23;61.90;96352.97;4197512;28;5709;-62
2023/08/27 06:50:47;;;;;;;;;;;;;;;23.28;61.90;96357.50;4192211;28;5742;-62
2023/08/27 06:52:50;;;;;;;;;;;;;;;23.32;62.10;96367.41;4192062;28;5733;-63
2023/08/27 06:54:53;;;;;;;;;;;;;;;23.36;61.92;96378.47;4189306;28;5861;-62
2023/08/27 06:56:56;;;;;;;;;;;;;;;23.37;61.73;96383.56;4189340;28;5823;-62
2023/08/27 06:58:59;;;;;;;;;;;;;;;23.39;61.43;96391.38;4192705;28;5828;-62
2023/08/27 07:01:04;;;;;;;;;;;;;;;23.39;61.27;96402.16;4185313;28;5722;-63
2023/08/27 07:03:06;;;;;;;;;;;;;;;23.41;61.14;96416.16;4197003;28;5784;-63
2023/08/27 07:05:09;;;;;;;;;;;;;;;23.43;60.94;96419.38;4181206;28;5089;-63
2023/08/27 07:07:13;;;;;;;;;;;;;;;23.46;61.09;96419.63;4188558;28;5875;-62
2023/08/27 07:09:16;;;;;;;;;;;;;;;23.47;60.50;96402.34;4186288;28;5788;-63
2023/08/27 07:11:19;;;;;;;;;;;;;;;23.50;60.42;96409.06;4180786;28;5804;-62
2023/08/27 07:13:22;;;;;;;;;;;;;;;23.51;60.24;96402.56;4182728;28;5818;-63
2023/08/27 07:15:25;;;;;;;;;;;;;;;23.52;59.98;96401.47;4184028;28;5818;-62
2023/08/27 07:17:29;;;;;;;;;;;;;;;23.52;59.91;96402.28;4185627;28;5952;-62
2023/08/27 07:19:32;;;;;;;;;;;;;;;23.53;60.05;96401.19;4192452;28;6546;-63
2023/08/27 07:21:35;;;;;;;;;;;;;;;23.56;59.63;96404.41;4185213;28;5746;-63
2023/08/27 07:23:37;;;;;;;;;;;;;;;23.57;59.65;96400.66;4180661;28;5754;-63
2023/08/27 07:25:41;;;;;;;;;;;;;;;23.58;59.29;96400.38;4188749;28;5504;-62
2023/08/27 07:27:45;;;;;;;;;;;;;;;23.57;59.63;96406.84;4188977;28;5871;-62
2023/08/27 07:29:48;;;;;;;;;;;;;;;23.57;59.20;96397.94;4180525;28;5750;-63
2023/08/27 07:31:51;;;;;;;;;;;;;;;23.59;59.44;96396.59;4178135;28;5730;-63
2023/08/27 07:33:55;;;;;;;;;;;;;;;23.61;58.92;96399.00;4175051;28;5705;-63
2023/08/27 07:35:57;;;;;;;;;;;;;;;23.61;59.06;96388.22;4176400;28;5831;-62
2023/08/27 07:38:00;;;;;;;;;;;;;;;23.62;59.05;96395.22;4184295;28;5733;-63
2023/08/27 07:40:10;;;;;;;;;;;;;;;23.61;58.85;96386.31;4177780;28;5726;-63
2023/08/27 07:42:13;;;;;;;;;;;;;;;23.62;58.84;96385.22;4177679;28;5712;-63
2023/08/27 07:44:16;;;;;;;;;;;;;;;23.64;58.73;96368.75;4183255;28;5721;-63
2023/08/27 07:46:19;;;;;;;;;;;;;;;23.65;58.90;96352.25;4177555;28;5721;-63
2023/08/27 07:48:22;;;;;;;;;;;;;;;23.62;58.75;96366.34;4174503;28;5897;-62
2023/08/27 07:50:27;;;;;;;;;;;;;;;23.60;58.22;96365.03;4176446;28;5750;-64
2023/08/27 07:52:30;;;;;;;;;;;;;;;23.57;58.43;96352.88;4181429;28;6931;-63
2023/08/27 07:54:33;;;;;;;;;;;;;;;23.59;58.63;96363.41;4174099;28;5855;-63
2023/08/27 07:56:36;;;;;;;;;;;;;;;23.60;58.22;96363.13;4177976;28;5724;-63
2023/08/27 07:58:39;;;;;;;;;;;;;;;23.62;58.08;96363.63;4173227;28;5701;-63
2023/08/27 08:00:42;;;;;;;;;;;;;;;23.65;58.27;96363.06;4172852;28;5909;-63
2023/08/27 08:02:45;;;;;;;;;;;;;;;23.67;58.15;96346.56;4175166;28;5908;-62
2023/08/27 08:04:49;;;;;;;;;;;;;;;23.69;58.14;96360.63;4176637;28;5733;-62
2023/08/27 08:06:53;;;;;;;;;;;;;;;23.70;58.14;96370.31;4177133;28;6472;-62
2023/08/27 08:08:56;;;;;;;;;;;;;;;23.70;57.90;96379.22;4174625;28;5745;-62
2023/08/27 08:10:59;;;;;;;;;;;;;;;23.70;58.04;96375.72;4177039;28;5996;-62
2023/08/27 08:13:01;;;;;;;;;;;;;;;23.72;58.02;96374.31;4182647;28;6001;-62
2023/08/27 08:15:05;;;;;;;;;;;;;;;23.73;57.94;96388.63;4181057;28;5800;-60
2023/08/27 08:17:08;;;;;;;;;;;;;;;23.68;57.49;96384.09;4168928;28;5918;-62
2023/08/27 08:19:12;;;;;;;;;;;;;;;23.67;57.77;96390.59;4167180;28;5734;-61
2023/08/27 08:21:15;;;;;;;;;;;;;;;23.67;57.75;96382.50;4177673;28;5869;-63
2023/08/27 08:23:19;;;;;;;;;;;;;;;23.68;57.86;96384.09;4179318;28;6489;-63
2023/08/27 08:25:23;;;;;;;;;;;;;;;23.70;57.27;96387.31;4177532;28;5805;-63
2023/08/27 08:27:26;;;;;;;;;;;;;;;23.71;57.54;96386.22;4173269;28;5860;-63
2023/08/27 08:29:29;;;;;;;;;;;;;;;23.74;57.37;96392.94;4176688;28;5854;-62
2023/08/27 08:31:31;;;;;;;;;;;;;;;23.74;57.58;96396.44;4170996;28;5738;-62
2023/08/27 08:33:34;;;;;;;;;;;;;;;23.73;57.82;96394.03;4167921;28;5735;-63
2023/08/27 08:35:37;;;;;;;;;;;;;;;23.73;57.81;96391.31;4175640;28;5725;-62
2023/08/27 08:37:41;;;;;;;;;;;;;;;23.72;57.83;96390.53;4175438;28;5815;-62
2023/08/27 08:39:44;;;;;;;;;;;;;;;23.72;57.59;96393.22;4174136;28;5721;-63
2023/08/27 08:41:55;;;;;;;;;;;;;;;23.73;57.87;96381.31;4172960;28;5952;-62
2023/08/27 08:44:06;;;;;;;;;;;;;;;23.74;57.78;96377.53;4183432;28;5776;-63
2023/08/27 08:46:09;;;;;;;;;;;;;;;23.74;57.88;96382.94;4175524;28;5764;-62
2023/08/27 08:48:13;;;;;;;;;;;;;;;23.74;57.53;96382.13;4166933;28;5734;-62
2023/08/27 08:50:19;;;;;;;;;;;;;;;23.73;57.75;96375.94;4175469;28;5708;-63
2023/08/27 08:52:27;;;;;;;;;;;;;;;23.74;57.58;96380.22;4171054;28;5828;-64
2023/08/27 08:54:30;;;;;;;;;;;;;;;23.73;57.42;96377.81;4174275;28;5713;-64
2023/08/27 08:56:44;;;;;;;;;;;;;;;23.75;57.19;96383.75;4174814;28;5709;-64
2023/08/27 08:58:52;;;;;;;;;;;;;;;23.76;56.79;96375.34;4177862;28;5845;-63
2023/08/27 09:00:56;;;;;;;;;;;;;;;23.76;57.00;96375.34;4175187;28;5742;-63
2023/08/27 09:03:03;;;;;;;;;;;;;;;23.75;57.16;96384.53;4174868;28;5722;-63
2023/08/27 09:05:06;;;;;;;;;;;;;;;23.75;57.07;96373.75;4166652;28;7488;-63
2023/08/27 09:07:10;;;;;;;;;;;;;;;23.76;56.63;96386.16;4176884;28;5855;-63
2023/08/27 09:09:15;;;;;;;;;;;;;;;23.75;56.74;96381.03;4173544;28;5829;-63
2023/08/27 09:11:19;;;;;;;;;;;;;;;23.76;56.88;96375.34;4176013;28;5760;-63
2023/08/27 09:13:23;;;;;;;;;;;;;;;23.78;56.70;96388.56;4174944;28;5811;-63
2023/08/27 09:15:26;;;;;;;;;;;;;;;23.79;57.05;96384.78;4177503;28;6419;-63
2023/08/27 09:17:29;;;;;;;;;;;;;;;23.80;56.71;96386.41;4174419;28;5717;-62
2023/08/27 09:19:32;;;;;;;;;;;;;;;23.78;56.98;96389.38;4179814;28;6443;-63
2023/08/27 09:21:36;;;;;;;;;;;;;;;23.77;56.68;96384.25;4174860;28;5829;-63
2023/08/27 09:23:38;;;;;;;;;;;;;;;23.78;56.91;96375.88;4177375;28;5713;-62
2023/08/27 09:25:42;;;;;;;;;;;;;;;23.83;56.77;96385.00;4174055;28;5746;-62
2023/08/27 09:27:45;;;;;;;;;;;;;;;23.83;56.88;96404.72;4169113;28;5953;-62
2023/08/27 09:29:52;;;;;;;;;;;;;;;23.85;56.73;96404.41;4176299;28;5905;-62
2023/08/27 09:31:57;;;;;;;;;;;;;;;23.86;56.72;96400.63;4168024;28;5849;-62
2023/08/27 09:33:59;;;;;;;;;;;;;;;23.88;56.23;96403.84;4166260;28;5097;-62
2023/08/27 09:36:02;;;;;;;;;;;;;;;23.88;56.62;96409.22;4174934;28;5945;-62
2023/08/27 09:38:05;;;;;;;;;;;;;;;23.88;56.31;96403.84;4174427;28;5093;-62
2023/08/27 09:40:10;;;;;;;;;;;;;;;23.89;56.18;96389.25;4174737;28;5820;-63
2023/08/27 09:42:13;;;;;;;;;;;;;;;23.90;56.57;96385.44;4174938;28;5815;-63
2023/08/27 09:44:16;;;;;;;;;;;;;;;23.88;56.45;96387.63;4171730;28;5751;-63
2023/08/27 09:46:20;;;;;;;;;;;;;;;23.87;55.91;96389.53;4165778;28;6749;-63
2023/08/27 09:48:25;;;;;;;;;;;;;;;23.85;55.98;96394.41;4174190;28;5738;-63
2023/08/27 09:50:29;;;;;;;;;;;;;;;23.83;56.14;96396.59;4177266;28;5868;-63
2023/08/27 09:52:32;;;;;;;;;;;;;;;23.85;56.02;96399.00;4178919;28;5808;-63
2023/08/27 09:54:35;;;;;;;;;;;;;;;23.86;56.18;96387.94;4175081;28;5730;-63
2023/08/27 09:56:37;;;;;;;;;;;;;;;23.90;55.89;96386.28;4174470;28;5093;-63
2023/08/27 09:58:40;;;;;;;;;;;;;;;23.90;55.87;96380.88;4168958;28;5810;-63
2023/08/27 10:00:43;;;;;;;;;;;;;;;23.90;55.90;96375.47;4168588;28;5825;-64
2023/08/27 10:02:50;;;;;;;;;;;;;;;23.92;55.83;96369.78;4166076;28;5730;-63
2023/08/27 10:04:56;;;;;;;;;;;;;;;23.94;56.00;96363.00;4172709;28;5702;-63
2023/08/27 10:06:59;;;;;;;;;;;;;;;23.98;55.71;96360.53;4173432;28;7215;-63
2023/08/27 10:09:02;;;;;;;;;;;;;;;24.01;55.48;96360.78;4174977;28;5957;-63
2023/08/27 10:11:10;;;;;;;;;;;;;;;24.01;55.70;96366.16;4173709;28;5795;-63
2023/08/27 10:13:15;;;;;;;;;;;;;;;24.05;55.27;96366.38;4181231;28;6713;-63
2023/08/27 10:15:19;;;;;;;;;;;;;;;24.04;55.04;96362.88;4182249;28;6442;-63
2023/08/27 10:17:24;;;;;;;;;;;;;;;24.00;55.09;96363.72;4174123;28;5733;-63
2023/08/27 10:19:29;;;;;;;;;;;;;;;23.99;55.21;96365.63;4180783;28;5784;-63
2023/08/27 10:21:32;;;;;;;;;;;;;;;24.02;55.26;96367.78;4167166;28;5833;-63
2023/08/27 10:23:38;;;;;;;;;;;;;;;24.07;54.82;96372.28;4167249;28;5073;-63
2023/08/27 10:25:42;;;;;;;;;;;;;;;24.09;54.92;96376.31;4175526;28;5749;-63
2023/08/27 10:27:47;;;;;;;;;;;;;;;24.11;55.13;96367.91;4166824;28;5759;-63
2023/08/27 10:29:52;;;;;;;;;;;;;;;24.15;54.70;96360.84;4170584;28;5904;-63
2023/08/27 10:31:55;;;;;;;;;;;;;;;24.17;55.03;96363.25;4177814;28;5720;-63
2023/08/27 10:33:58;;;;;;;;;;;;;;;24.17;54.62;96364.06;4178440;28;5971;-63
2023/08/27 10:36:06;;;;;;;;;;;;;;;24.17;54.86;96364.06;4174359;28;5785;-63
2023/08/27 10:38:10;;;;;;;;;;;;;;;24.20;54.65;96360.78;4172958;28;5952;-63
2023/08/27 10:40:15;;;;;;;;;;;;;;;24.25;54.86;96351.81;4173189;28;5801;-63
2023/08/27 10:42:31;;;;;;;;;;;;;;;24.26;54.60;96345.31;4167179;28;5753;-62
2023/08/27 10:44:34;;;;;;;;;;;;;;;24.31;54.32;96340.66;4170677;28;5746;-62
2023/08/27 10:46:37;;;;;;;;;;;;;;;24.33;54.20;96335.78;4165588;28;5594;-64
2023/08/27 10:48:40;;;;;;;;;;;;;;;24.32;54.23;96334.16;4173736;28;5793;-64
2023/08/27 10:50:46;;;;;;;;;;;;;;;24.33;54.03;96335.78;4178500;28;5820;-64
2023/08/27 10:52:51;;;;;;;;;;;;;;;24.33;54.01;96338.47;4173976;28;5718;-63
2023/08/27 10:54:59;;;;;;;;;;;;;;;24.34;54.21;96331.16;4167480;28;5730;-63
2023/08/27 10:57:16;;;;;;;;;;;;;;;24.35;53.96;96325.50;4181255;28;5756;-63
2023/08/27 10:59:28;;;;;;;;;;;;;;;24.39;53.96;96323.00;4171954;28;6430;-63
2023/08/27 11:01:36;;;;;;;;;;;;;;;24.42;53.64;96332.44;4169112;28;5848;-62
2023/08/27 11:03:57;;;;;;;;;;;;;;;24.45;53.76;96329.13;4170730;28;5734;-62
2023/08/27 11:06:13;;;;;;;;;;;;;;;24.45;53.89;96342.63;4176356;28;5801;-63
2023/08/27 11:08:34;;;;;;;;;;;;;;;24.45;53.50;96338.03;4180751;28;5819;-62
2023/08/27 11:10:40;;;;;;;;;;;;;;;24.48;53.55;96336.66;4173356;28;5841;-62
2023/08/27 11:12:43;;;;;;;;;;;;;;;24.50;53.44;96339.88;4175803;28;5742;-62
2023/08/27 11:14:45;;;;;;;;;;;;;;;24.51;53.75;96338.78;4173722;28;6435;-62
2023/08/27 11:16:56;;;;;;;;;;;;;;;24.51;53.28;96346.88;4171316;28;5833;-62
2023/08/27 11:18:58;;;;;;;;;;;;;;;24.55;53.22;96356.00;4169403;28;5758;-62
2023/08/27 11:21:19;;;;;;;;;;;;;;;24.60;53.60;96364.84;4177073;28;5742;-62
2023/08/27 11:23:23;;;;;;;;;;;;;;;24.67;53.36;96351.75;4170351;28;5838;-62
2023/08/27 11:25:27;;;;;;;;;;;;;;;24.70;53.06;96349.59;4176895;28;6462;-63
2023/08/27 11:27:35;;;;;;;;;;;;;;;24.74;53.16;96353.28;4176408;28;5905;-62
2023/08/27 11:29:40;;;;;;;;;;;;;;;24.74;52.90;96356.00;4174833;28;5738;-62
2023/08/27 11:31:45;;;;;;;;;;;;;;;24.75;52.97;96346.78;4176498;28;5845;-62
2023/08/27 11:33:48;;;;;;;;;;;;;;;24.77;52.89;96344.59;4181664;28;5792;-64
2023/08/27 11:35:51;;;;;;;;;;;;;;;24.80;52.66;96338.59;4176437;28;5726;-61
2023/08/27 11:37:54;;;;;;;;;;;;;;;24.83;52.71;96344.22;4176389;28;5712;-61
2023/08/27 11:39:59;;;;;;;;;;;;;;;24.87;52.75;96337.13;4177965;28;5817;-61
2023/08/27 11:42:01;;;;;;;;;;;;;;;24.90;52.57;96339.22;4181270;28;5864;-62
2023/08/27 11:44:05;;;;;;;;;;;;;;;24.94;52.87;96334.06;4176557;28;5709;-62
2023/08/27 11:46:21;;;;;;;;;;;;;;;24.97;52.32;96344.28;4167726;28;5822;-62
2023/08/27 11:48:25;;;;;;;;;;;;;;;24.96;52.57;96348.06;4170002;28;5746;-62
2023/08/27 11:50:28;;;;;;;;;;;;;;;24.91;52.33;96353.53;4176237;28;5824;-62
2023/08/27 11:52:34;;;;;;;;;;;;;;;24.86;52.25;96348.25;4171704;28;5771;-63
2023/08/27 11:54:37;;;;;;;;;;;;;;;24.80;52.28;96355.59;4167728;28;5829;-63
2023/08/27 11:56:42;;;;;;;;;;;;;;;24.76;52.11;96351.91;4177356;28;5717;-63
2023/08/27 11:58:46;;;;;;;;;;;;;;;24.71;52.04;96353.91;4183325;28;5712;-63
2023/08/27 12:00:55;;;;;;;;;;;;;;;24.60;51.72;96350.53;4170359;28;5718;-63
2023/08/27 12:03:00;;;;;;;;;;;;;;;24.41;49.98;96357.84;4175485;28;5742;-63
2023/08/27 12:05:03;;;;;;;;;;;;;;;24.31;51.17;96364.97;4175292;28;5828;-64
2023/08/27 12:07:05;;;;;;;;;;;;;;;24.32;51.07;96353.09;4167398;28;5739;-64
2023/08/27 12:09:08;;;;;;;;;;;;;;;24.38;51.01;96351.94;4176066;28;6008;-64
2023/08/27 12:11:12;;;;;;;;;;;;;;;24.44;51.19;96335.63;4167584;28;5754;-64
2023/08/27 12:13:17;;;;;;;;;;;;;;;24.47;50.76;96335.06;4177001;28;5717;-63
2023/08/27 12:15:20;;;;;;;;;;;;;;;24.46;50.82;96339.63;4175621;28;5742;-63
2023/08/27 12:17:23;;;;;;;;;;;;;;;24.47;50.21;96340.47;4181772;28;5693;-63
2023/08/27 12:19:26;;;;;;;;;;;;;;;24.42;49.58;96348.63;4175416;28;5867;-63
2023/08/27 12:21:32;;;;;;;;;;;;;;;24.33;48.41;96351.19;4169407;28;5732;-63
2023/08/27 12:23:35;;;;;;;;;;;;;;;24.12;48.26;96361.41;4167578;28;5903;-63
2023/08/27 12:25:58;;;;;;;;;;;;;;;23.84;47.77;96359.63;4179976;28;5821;-63
2023/08/27 12:28:01;;;;;;;;;;;;;;;23.63;48.28;96359.84;4176364;28;5758;-63
2023/08/27 12:30:07;;;;;;;;;;;;;;;23.50;48.55;96363.19;4183403;28;5713;-63
2023/08/27 12:32:12;;;;;;;;;;;;;;;23.46;48.94;96368.38;4172793;28;5889;-63
2023/08/27 12:34:14;;;;;;;;;;;;;;;23.45;49.16;96365.97;4182616;28;5720;-63
2023/08/27 12:36:16;;;;;;;;;;;;;;;23.38;49.21;96360.09;4176986;28;5858;-63
2023/08/27 12:38:19;;;;;;;;;;;;;;;23.39;49.07;96348.22;4175338;28;5734;-63
2023/08/27 12:40:22;;;;;;;;;;;;;;;23.37;49.11;96350.41;4173636;28;5857;-63
2023/08/27 12:42:26;;;;;;;;;;;;;;;23.42;49.11;96353.81;4169621;28;5871;-63
2023/08/27 12:44:29;;;;;;;;;;;;;;;23.47;49.37;96345.69;4174639;28;5809;-63
2023/08/27 12:46:32;;;;;;;;;;;;;;;23.49;49.22;96348.91;4180271;28;5875;-63
2023/08/27 12:48:36;;;;;;;;;;;;;;;23.50;48.98;96347.00;4169724;28;6084;-62
2023/08/27 12:50:38;;;;;;;;;;;;;;;23.44;49.02;96348.16;4175381;28;5827;-62
2023/08/27 12:52:41;;;;;;;;;;;;;;;23.43;49.45;96350.03;4170620;28;5369;-63
2023/08/27 12:54:44;;;;;;;;;;;;;;;23.44;48.63;96340.88;4174897;28;5781;-63
2023/08/27 12:56:47;;;;;;;;;;;;;;;23.38;49.22;96349.31;4167025;28;5845;-63
2023/08/27 12:58:50;;;;;;;;;;;;;;;23.38;48.86;96346.59;4172787;28;5895;-63
2023/08/27 13:00:52;;;;;;;;;;;;;;;23.38;48.37;96352.00;4174930;28;5837;-63
2023/08/27 13:02:57;;;;;;;;;;;;;;;23.20;48.71;96340.81;4168347;28;5731;-63
2023/08/27 13:05:00;;;;;;;;;;;;;;;23.23;49.03;96342.97;4173559;28;5717;-61
2023/08/27 13:07:03;;;;;;;;;;;;;;;23.27;48.61;96345.91;4182684;28;5772;-63
2023/08/27 13:09:07;;;;;;;;;;;;;;;23.22;47.87;96351.34;4167174;28;5976;-62
2023/08/27 13:11:10;;;;;;;;;;;;;;;23.12;48.44;96354.94;4165820;28;5730;-63
2023/08/27 13:13:13;;;;;;;;;;;;;;;23.20;48.80;96364.28;4167190;28;6627;-63
2023/08/27 13:15:16;;;;;;;;;;;;;;;23.24;48.32;96374.25;4174818;28;5754;-62
2023/08/27 13:17:20;;;;;;;;;;;;;;;23.30;48.35;96371.50;4181717;28;5808;-63
2023/08/27 13:19:24;;;;;;;;;;;;;;;23.36;47.96;96370.38;4166741;28;5861;-63
2023/08/27 13:21:27;;;;;;;;;;;;;;;23.39;47.76;96380.56;4174660;28;5956;-63
2023/08/27 13:23:30;;;;;;;;;;;;;;;23.41;47.86;96394.56;4171934;28;5726;-63
2023/08/27 13:25:33;;;;;;;;;;;;;;;23.41;48.08;96378.41;4174664;28;5754;-63
2023/08/27 13:27:36;;;;;;;;;;;;;;;23.46;47.66;96386.44;4174360;28;5890;-63
2023/08/27 13:29:39;;;;;;;;;;;;;;;23.45;47.88;96399.13;4169586;28;5737;-63
2023/08/27 13:31:41;;;;;;;;;;;;;;;23.50;47.79;96400.97;4178903;28;5709;-63
2023/08/27 13:33:44;;;;;;;;;;;;;;;23.52;47.36;96396.91;4177781;28;6015;-62
2023/08/27 13:35:49;;;;;;;;;;;;;;;23.49;47.83;96392.06;4175806;28;5723;-63
2023/08/27 13:37:52;;;;;;;;;;;;;;;23.51;48.05;96399.88;4174763;28;5720;-62
2023/08/27 13:39:54;;;;;;;;;;;;;;;23.58;47.71;96413.88;4174301;28;7739;-62
2023/08/27 13:42:02;;;;;;;;;;;;;;;23.60;47.83;96418.97;4167505;28;5821;-63
2023/08/27 13:44:05;;;;;;;;;;;;;;;23.63;48.36;96418.41;4182330;28;5815;-63
2023/08/27 13:46:08;;;;;;;;;;;;;;;23.64;48.02;96426.22;4166277;28;5822;-63
2023/08/27 13:48:10;;;;;;;;;;;;;;;23.59;48.04;96428.97;4174259;28;5871;-63
2023/08/27 13:50:14;;;;;;;;;;;;;;;23.55;48.39;96438.69;4166842;28;5750;-63
2023/08/27 13:52:18;;;;;;;;;;;;;;;23.46;48.56;96440.41;4173248;28;5862;-63
2023/08/27 13:54:22;;;;;;;;;;;;;;;23.38;48.63;96443.69;4174751;28;5807;-63
2023/08/27 13:56:24;;;;;;;;;;;;;;;23.42;48.78;96450.13;4174395;28;5717;-62
2023/08/27 13:58:29;;;;;;;;;;;;;;;23.44;49.03;96451.47;4171529;28;5952;-62
2023/08/27 14:00:33;;;;;;;;;;;;;;;23.38;48.78;96455.31;4177995;28;5807;-62
2023/08/27 14:02:35;;;;;;;;;;;;;;;23.37;48.97;96455.59;4171061;28;5734;-63
2023/08/27 14:04:39;;;;;;;;;;;;;;;23.36;49.37;96452.09;4170431;28;5717;-62
2023/08/27 14:06:42;;;;;;;;;;;;;;;23.38;49.12;96455.31;4178322;28;5833;-62
2023/08/27 14:08:46;;;;;;;;;;;;;;;23.41;49.25;96449.31;4177916;28;6493;-63
2023/08/27 14:10:48;;;;;;;;;;;;;;;23.44;49.27;96438.00;4175337;28;5730;-62
2023/08/27 14:12:51;;;;;;;;;;;;;;;23.45;49.78;96452.28;4174747;28;5810;-63
2023/08/27 14:14:54;;;;;;;;;;;;;;;23.45;49.47;96444.19;4178734;28;5833;-63
2023/08/27 14:16:57;;;;;;;;;;;;;;;23.48;49.85;96462.50;4174341;28;5840;-63
2023/08/27 14:19:00;;;;;;;;;;;;;;;23.50;49.77;96460.31;4174333;28;5838;-63
2023/08/27 14:21:03;;;;;;;;;;;;;;;23.47;49.67;96460.91;4173290;28;5717;-63
2023/08/27 14:23:06;;;;;;;;;;;;;;;23.40;50.20;96466.59;4166481;28;5839;-63
2023/08/27 14:25:11;;;;;;;;;;;;;;;23.37;50.21;96466.38;4174540;28;5808;-63
2023/08/27 14:27:14;;;;;;;;;;;;;;;23.39;50.18;96462.31;4174336;28;5829;-62
2023/08/27 14:29:16;;;;;;;;;;;;;;;23.42;50.31;96460.91;4173165;28;5829;-62
2023/08/27 14:31:19;;;;;;;;;;;;;;;23.42;50.54;96463.63;4174449;28;5733;-62
2023/08/27 14:33:21;;;;;;;;;;;;;;;23.45;50.38;96454.97;4174120;28;5088;-63
2023/08/27 14:35:24;;;;;;;;;;;;;;;23.48;50.63;96459.81;4167647;28;5793;-62
2023/08/27 14:37:27;;;;;;;;;;;;;;;23.51;50.77;96459.22;4178978;28;6007;-62
2023/08/27 14:39:30;;;;;;;;;;;;;;;23.53;50.83;96462.44;4176441;28;5804;-62
2023/08/27 14:41:34;;;;;;;;;;;;;;;23.55;50.73;96468.34;4173431;28;5730;-62
2023/08/27 14:43:37;;;;;;;;;;;;;;;23.58;50.85;96469.72;4180825;28;6544;-63
2023/08/27 14:45:40;;;;;;;;;;;;;;;23.60;51.47;96471.06;4181772;28;5900;-63
2023/08/27 14:47:43;;;;;;;;;;;;;;;23.61;51.91;96471.88;4178491;28;5845;-67
2023/08/27 14:49:46;;;;;;;;;;;;;;;23.56;52.37;96467.28;4184314;28;5701;-67
2023/08/27 14:51:49;;;;;;;;;;;;;;;23.51;52.24;96472.72;4177388;28;5725;-66
2023/08/27 14:53:52;;;;;;;;;;;;;;;23.46;52.62;96473.59;4175215;28;5856;-67
2023/08/27 14:55:55;;;;;;;;;;;;;;;23.41;53.19;96486.28;4176939;28;5107;-67
2023/08/27 14:58:00;;;;;;;;;;;;;;;23.33;54.17;96481.50;4178763;28;5762;-66
2023/08/27 15:00:05;;;;;;;;;;;;;;;23.26;54.63;96478.31;4181062;28;5885;-66
2023/08/27 15:02:09;;;;;;;;;;;;;;;23.20;54.74;96480.25;4174639;28;5825;-65
2023/08/27 15:04:12;;;;;;;;;;;;;;;23.12;54.73;96478.97;4173000;28;5810;-68
2023/08/27 15:06:15;;;;;;;;;;;;;;;23.08;55.18;96477.09;4183747;28;5772;-66
2023/08/27 15:08:18;;;;;;;;;;;;;;;23.04;55.17;96482.25;4176781;28;5838;-66
2023/08/27 15:10:21;;;;;;;;;;;;;;;23.01;55.25;96479.31;4175557;28;5829;-61
2023/08/27 15:12:23;;;;;;;;;;;;;;;22.99;55.74;96479.59;4174593;28;5820;-63
2023/08/27 15:14:27;;;;;;;;;;;;;;;22.97;55.30;96470.16;4168846;28;5834;-64
2023/08/27 15:16:30;;;;;;;;;;;;;;;22.95;55.84;96476.66;4175097;28;5878;-63
2023/08/27 15:18:33;;;;;;;;;;;;;;;22.94;56.23;96480.44;4171823;28;5733;-63
2023/08/27 15:20:36;;;;;;;;;;;;;;;22.96;55.53;96472.06;4174922;28;5739;-64
2023/08/27 15:22:39;;;;;;;;;;;;;;;23.00;55.83;96481.22;4180813;28;5794;-63
2023/08/27 15:24:42;;;;;;;;;;;;;;;22.99;55.70;96479.59;4173118;28;5721;-63
2023/08/27 15:26:45;;;;;;;;;;;;;;;22.98;56.25;96483.34;4184869;28;5983;-62
2023/08/27 15:28:48;;;;;;;;;;;;;;;22.93;56.28;96486.09;4177667;28;5825;-61
2023/08/27 15:30:53;;;;;;;;;;;;;;;22.92;56.40;96489.88;4174537;28;5833;-62
2023/08/27 15:32:55;;;;;;;;;;;;;;;22.93;55.95;96483.41;4176895;28;5738;-63
2023/08/27 15:34:58;;;;;;;;;;;;;;;22.97;55.62;96481.75;4175416;28;5800;-63
2023/08/27 15:37:01;;;;;;;;;;;;;;;22.91;55.72;96489.06;4177874;28;6445;-69
2023/08/27 15:39:05;;;;;;;;;;;;;;;22.89;55.84;96501.22;4175860;28;5799;-68
2023/08/27 15:41:07;;;;;;;;;;;;;;;22.87;55.80;96503.38;4184058;28;6282;-68
2023/08/27 15:43:31;;;;;;;;;;;;;;;22.86;55.94;96507.16;4168539;28;5192;-68
2023/08/27 15:45:35;;;;;;;;;;;;;;;22.88;55.53;96507.72;4178483;28;5698;-68
2023/08/27 15:47:39;;;;;;;;;;;;;;;22.87;55.75;96511.47;4176349;28;5720;-68
2023/08/27 15:49:42;;;;;;;;;;;;;;;22.87;55.32;96519.53;4175936;28;5739;-68
2023/08/27 15:51:45;;;;;;;;;;;;;;;22.87;55.62;96520.34;4170366;28;5794;-68
2023/08/27 15:53:48;;;;;;;;;;;;;;;22.88;55.77;96523.88;4182795;28;5832;-65
2023/08/27 15:55:50;;;;;;;;;;;;;;;22.93;55.88;96521.13;4176731;28;5840;-64
2023/08/27 15:57:53;;;;;;;;;;;;;;;23.01;55.68;96522.44;4174929;28;6066;-64
2023/08/27 15:59:56;;;;;;;;;;;;;;;23.05;55.50;96521.59;4173757;28;5800;-64
2023/08/27 16:01:59;;;;;;;;;;;;;;;23.08;55.54;96526.44;4181745;28;5837;-64
2023/08/27 16:04:03;;;;;;;;;;;;;;;23.08;55.03;96526.44;4172568;28;5837;-64
2023/08/27 16:06:08;;;;;;;;;;;;;;;23.08;55.42;96522.94;4176404;28;5733;-64
2023/08/27 16:08:11;;;;;;;;;;;;;;;23.09;55.21;96521.84;4174654;28;5738;-64
2023/08/27 16:10:14;;;;;;;;;;;;;;;23.10;55.13;96515.38;4172480;28;5726;-64
2023/08/27 16:12:17;;;;;;;;;;;;;;;23.11;55.34;96509.72;4182516;28;6084;-64
2023/08/27 16:14:20;;;;;;;;;;;;;;;23.13;54.80;96509.44;4179869;28;5949;-64
2023/08/27 16:16:23;;;;;;;;;;;;;;;23.15;55.08;96513.47;4180832;28;5932;-63
2023/08/27 16:18:27;;;;;;;;;;;;;;;23.15;54.78;96510.75;4169101;28;6619;-65
2023/08/27 16:20:31;;;;;;;;;;;;;;;23.14;55.14;96506.44;4178884;28;5852;-67
2023/08/27 16:22:34;;;;;;;;;;;;;;;23.14;54.84;96502.94;4180770;28;5873;-63
2023/08/27 16:24:37;;;;;;;;;;;;;;;23.14;55.16;96500.25;4167423;28;5801;-66
2023/08/27 16:26:39;;;;;;;;;;;;;;;23.13;55.10;96496.75;4171457;28;5738;-66
2023/08/27 16:28:43;;;;;;;;;;;;;;;23.13;54.67;96493.25;4167715;28;5077;-67
2023/08/27 16:30:46;;;;;;;;;;;;;;;23.16;55.10;96493.50;4173090;28;5771;-69
2023/08/27 16:32:49;;;;;;;;;;;;;;;23.18;54.93;96495.91;4175559;28;5789;-64
2023/08/27 16:34:55;;;;;;;;;;;;;;;23.16;54.61;96495.38;4179999;28;5808;-63
2023/08/27 16:36:59;;;;;;;;;;;;;;;23.10;54.90;96486.50;4178839;28;5812;-72
2023/08/27 16:39:02;;;;;;;;;;;;;;;23.09;54.81;96487.59;4182844;28;5764;-69
2023/08/27 16:41:05;;;;;;;;;;;;;;;23.07;54.63;96481.69;4173655;28;5708;-67
2023/08/27 16:43:08;;;;;;;;;;;;;;;23.05;54.93;96473.06;4182126;28;5784;-69
2023/08/27 16:45:11;;;;;;;;;;;;;;;23.07;55.18;96476.28;4175912;28;5712;-68
2023/08/27 16:47:12;;;;;;;;;;;;;;;23.10;54.81;96489.22;4169120;28;5726;-68
2023/08/27 16:49:15;;;;;;;;;;;;;;;23.10;54.87;96483.00;4182304;28;5708;-66
2023/08/27 16:51:18;;;;;;;;;;;;;;;23.11;55.20;96480.06;4177377;28;5941;-66
2023/08/27 16:53:23;;;;;;;;;;;;;;;23.14;55.09;96482.19;4173981;28;5743;-66
2023/08/27 16:55:26;;;;;;;;;;;;;;;23.13;54.65;96475.19;4173305;28;5738;-67
2023/08/27 16:57:29;;;;;;;;;;;;;;;23.14;54.97;96473.28;4180288;28;5856;-67
2023/08/27 16:59:32;;;;;;;;;;;;;;;23.14;54.74;96470.59;4178998;28;5821;-67
2023/08/27 17:01:34;;;;;;;;;;;;;;;23.14;55.16;96471.41;4182367;28;5721;-68
2023/08/27 17:03:38;;;;;;;;;;;;;;;23.12;55.09;96476.28;4179143;28;5813;-68
2023/08/27 17:05:41;;;;;;;;;;;;;;;23.13;55.04;96477.06;4179566;28;5732;-69
2023/08/27 17:07:44;;;;;;;;;;;;;;;23.13;54.64;96475.19;4182545;28;5713;-68
2023/08/27 17:09:48;;;;;;;;;;;;;;;23.16;54.70;96465.72;4178636;28;5905;-67
2023/08/27 17:11:51;;;;;;;;;;;;;;;23.15;54.49;96464.13;4180379;28;5839;-67
2023/08/27 17:13:54;;;;;;;;;;;;;;;23.10;54.83;96464.94;4177518;28;5716;-67
2023/08/27 17:15:56;;;;;;;;;;;;;;;23.07;54.81;96465.50;4172715;28;5698;-67
2023/08/27 17:18:00;;;;;;;;;;;;;;;23.08;55.03;96464.41;4180663;28;6682;-67
2023/08/27 17:20:04;;;;;;;;;;;;;;;23.09;55.00;96468.72;4175891;28;5701;-67
2023/08/27 17:22:07;;;;;;;;;;;;;;;23.10;54.82;96475.72;4179044;28;5705;-68